Freuchie, United Kingdom
Current Conditions -  °F | °C
As of 5:50 AM on Tuesday 21 Oct 2014 (Local Time) from EGQL Reporting Station
Light Rain Light Rain  
Wind Chill: 55°   Ceiling: 2300
Heat Index: 55°   Visibility: 3mi
Dew Point: 52°   Wind: 20mph
Humidity: 88%   Direction: 220°SW
Pressure: 28.97"   Gusts: NA
Location:  56.25°N, 3.16°W
Report Text: EGQL 210450Z 22017KT 5000 -RA BKN023 13/11 Q0981 WHT
Loading
Personal Weather Stations






























Interactive Weather Map
Tropical Storm Tracking
New forecast layout! Learn more

10-Day Weather Forecast

Advertisements
Track Severe Weather on mobile